sensor_id;sensor_type;location;lat;lon;timestamp;pressure;altitude;pressure_sealevel;temperature
67515;BMP280;60646;55.802;37.032;2022-12-29T00:00:10;99465.19;;;4.80
67515;BMP280;60646;55.802;37.032;2022-12-29T00:02:40;99458.56;;;4.66
67515;BMP280;60646;55.802;37.032;2022-12-29T00:05:06;99461.78;;;4.61
67515;BMP280;60646;55.802;37.032;2022-12-29T00:07:32;99469.13;;;4.57
67515;BMP280;60646;55.802;37.032;2022-12-29T00:09:58;99472.69;;;4.63
67515;BMP280;60646;55.802;37.032;2022-12-29T00:12:42;99474.44;;;4.57
67515;BMP280;60646;55.802;37.032;2022-12-29T00:15:26;99462.34;;;4.38
67515;BMP280;60646;55.802;37.032;2022-12-29T00:18:05;99477.97;;;4.45
67515;BMP280;60646;55.802;37.032;2022-12-29T00:20:34;99485.16;;;4.44
67515;BMP280;60646;55.802;37.032;2022-12-29T00:23:19;99470.28;;;4.29
67515;BMP280;60646;55.802;37.032;2022-12-29T00:26:05;99488.50;;;4.36
67515;BMP280;60646;55.802;37.032;2022-12-29T00:28:52;99472.94;;;4.29
67515;BMP280;60646;55.802;37.032;2022-12-29T00:31:36;99482.34;;;4.30
67515;BMP280;60646;55.802;37.032;2022-12-29T00:34:21;99483.78;;;4.21
67515;BMP280;60646;55.802;37.032;2022-12-29T00:37:05;99485.56;;;4.25
67515;BMP280;60646;55.802;37.032;2022-12-29T00:39:33;99477.91;;;4.17
67515;BMP280;60646;55.802;37.032;2022-12-29T00:42:17;99473.22;;;4.12
67515;BMP280;60646;55.802;37.032;2022-12-29T00:45:03;99474.78;;;4.10
67515;BMP280;60646;55.802;37.032;2022-12-29T00:47:29;99490.38;;;4.17
67515;BMP280;60646;55.802;37.032;2022-12-29T00:49:55;99487.88;;;4.13
67515;BMP280;60646;55.802;37.032;2022-12-29T00:52:21;99495.50;;;4.11
67515;BMP280;60646;55.802;37.032;2022-12-29T00:54:47;99481.09;;;4.03
67515;BMP280;60646;55.802;37.032;2022-12-29T00:57:12;99477.84;;;3.99
67515;BMP280;60646;55.802;37.032;2022-12-29T00:59:39;99493.13;;;4.04
67515;BMP280;60646;55.802;37.032;2022-12-29T01:02:06;99496.94;;;4.03
67515;BMP280;60646;55.802;37.032;2022-12-29T01:04:32;99503.53;;;3.99
67515;BMP280;60646;55.802;37.032;2022-12-29T01:06:58;99500.00;;;3.93
67515;BMP280;60646;55.802;37.032;2022-12-29T01:09:23;99490.13;;;3.84
67515;BMP280;60646;55.802;37.032;2022-12-29T01:12:09;99490.13;;;3.84
67515;BMP280;60646;55.802;37.032;2022-12-29T01:14:35;99505.09;;;3.87
67515;BMP280;60646;55.802;37.032;2022-12-29T01:17:02;99502.72;;;3.80
67515;BMP280;60646;55.802;37.032;2022-12-29T01:19:28;99499.34;;;3.80
67515;BMP280;60646;55.802;37.032;2022-12-29T01:21:55;99510.66;;;3.80
67515;BMP280;60646;55.802;37.032;2022-12-29T01:24:21;99507.69;;;3.78
67515;BMP280;60646;55.802;37.032;2022-12-29T01:26:48;99506.34;;;3.73
67515;BMP280;60646;55.802;37.032;2022-12-29T01:29:16;99510.88;;;3.73
67515;BMP280;60646;55.802;37.032;2022-12-29T01:31:44;99511.03;;;3.69
67515;BMP280;60646;55.802;37.032;2022-12-29T01:34:10;99494.66;;;3.53
67515;BMP280;60646;55.802;37.032;2022-12-29T01:36:55;99506.13;;;3.59
67515;BMP280;60646;55.802;37.032;2022-12-29T01:39:21;99500.22;;;3.55
67515;BMP280;60646;55.802;37.032;2022-12-29T01:41:47;99508.47;;;3.57
67515;BMP280;60646;55.802;37.032;2022-12-29T01:44:50;99521.00;;;3.65
67515;BMP280;60646;55.802;37.032;2022-12-29T01:47:38;99510.56;;;3.62
67515;BMP280;60646;55.802;37.032;2022-12-29T01:50:48;99507.19;;;3.61
67515;BMP280;60646;55.802;37.032;2022-12-29T01:53:18;99493.75;;;3.47
67515;BMP280;60646;55.802;37.032;2022-12-29T01:55:50;99495.03;;;3.42
67515;BMP280;60646;55.802;37.032;2022-12-29T01:58:19;99500.75;;;3.41
67515;BMP280;60646;55.802;37.032;2022-12-29T02:00:47;99520.00;;;3.50
67515;BMP280;60646;55.802;37.032;2022-12-29T02:03:14;99523.69;;;3.53
67515;BMP280;60646;55.802;37.032;2022-12-29T02:05:49;99519.59;;;3.52
67515;BMP280;60646;55.802;37.032;2022-12-29T02:08:17;99521.47;;;3.51
67515;BMP280;60646;55.802;37.032;2022-12-29T02:10:44;99506.88;;;3.38
67515;BMP280;60646;55.802;37.032;2022-12-29T02:13:10;99524.53;;;3.50
67515;BMP280;60646;55.802;37.032;2022-12-29T02:24:23;99531.44;;;3.47
67515;BMP280;60646;55.802;37.032;2022-12-29T02:32:46;99529.69;;;3.44
67515;BMP280;60646;55.802;37.032;2022-12-29T02:38:13;99531.25;;;3.42
67515;BMP280;60646;55.802;37.032;2022-12-29T02:40:46;99540.66;;;3.43
67515;BMP280;60646;55.802;37.032;2022-12-29T02:51:02;99541.81;;;3.42
67515;BMP280;60646;55.802;37.032;2022-12-29T02:53:31;99542.97;;;3.41
67515;BMP280;60646;55.802;37.032;2022-12-29T02:56:17;99543.72;;;3.41
67515;BMP280;60646;55.802;37.032;2022-12-29T02:59:02;99540.53;;;3.46
67515;BMP280;60646;55.802;37.032;2022-12-29T03:07:23;99548.00;;;3.48
67515;BMP280;60646;55.802;37.032;2022-12-29T03:13:28;99550.84;;;3.53
67515;BMP280;60646;55.802;37.032;2022-12-29T03:16:25;99555.38;;;3.53
67515;BMP280;60646;55.802;37.032;2022-12-29T03:19:04;99548.63;;;3.52
67515;BMP280;60646;55.802;37.032;2022-12-29T03:21:59;99537.59;;;3.44
67515;BMP280;60646;55.802;37.032;2022-12-29T03:24:53;99541.84;;;3.51
67515;BMP280;60646;55.802;37.032;2022-12-29T03:27:24;99557.16;;;3.56
67515;BMP280;60646;55.802;37.032;2022-12-29T03:29:59;99560.66;;;3.53
67515;BMP280;60646;55.802;37.032;2022-12-29T03:32:31;99555.06;;;3.51
67515;BMP280;60646;55.802;37.032;2022-12-29T03:34:59;99573.13;;;3.52
67515;BMP280;60646;55.802;37.032;2022-12-29T03:37:30;99570.69;;;3.58
67515;BMP280;60646;55.802;37.032;2022-12-29T03:39:58;99576.13;;;3.63
67515;BMP280;60646;55.802;37.032;2022-12-29T03:42:27;99560.66;;;3.53
67515;BMP280;60646;55.802;37.032;2022-12-29T03:44:55;99565.09;;;3.56
67515;BMP280;60646;55.802;37.032;2022-12-29T03:47:24;99563.72;;;3.51
67515;BMP280;60646;55.802;37.032;2022-12-29T03:49:50;99567.44;;;3.54
67515;BMP280;60646;55.802;37.032;2022-12-29T03:52:17;99575.03;;;3.52
67515;BMP280;60646;55.802;37.032;2022-12-29T03:54:44;99576.25;;;3.60
67515;BMP280;60646;55.802;37.032;2022-12-29T03:57:11;99569.19;;;3.57
67515;BMP280;60646;55.802;37.032;2022-12-29T03:59:54;99566.78;;;3.50
67515;BMP280;60646;55.802;37.032;2022-12-29T04:02:20;99580.19;;;3.55
67515;BMP280;60646;55.802;37.032;2022-12-29T04:04:46;99573.88;;;3.53
67515;BMP280;60646;55.802;37.032;2022-12-29T04:07:12;99579.34;;;3.58
67515;BMP280;60646;55.802;37.032;2022-12-29T04:09:39;99565.34;;;3.49
67515;BMP280;60646;55.802;37.032;2022-12-29T04:12:07;99563.25;;;3.44
67515;BMP280;60646;55.802;37.032;2022-12-29T04:14:34;99564.09;;;3.41
67515;BMP280;60646;55.802;37.032;2022-12-29T04:16:59;99586.75;;;3.51
67515;BMP280;60646;55.802;37.032;2022-12-29T04:19:25;99580.59;;;3.45
67515;BMP280;60646;55.802;37.032;2022-12-29T04:21:51;99581.41;;;3.42
67515;BMP280;60646;55.802;37.032;2022-12-29T04:24:17;99582.28;;;3.39
67515;BMP280;60646;55.802;37.032;2022-12-29T04:26:42;99582.50;;;3.32
67515;BMP280;60646;55.802;37.032;2022-12-29T04:29:26;99579.56;;;3.30
67515;BMP280;60646;55.802;37.032;2022-12-29T04:32:12;99593.06;;;3.32
67515;BMP280;60646;55.802;37.032;2022-12-29T04:34:44;99593.38;;;3.34
67515;BMP280;60646;55.802;37.032;2022-12-29T04:37:10;99607.31;;;3.34
67515;BMP280;60646;55.802;37.032;2022-12-29T04:39:36;99595.50;;;3.26
67515;BMP280;60646;55.802;37.032;2022-12-29T04:42:03;99596.34;;;3.23
67515;BMP280;60646;55.802;37.032;2022-12-29T04:44:29;99611.09;;;3.33
67515;BMP280;60646;55.802;37.032;2022-12-29T04:47:17;99614.50;;;3.34
67515;BMP280;60646;55.802;37.032;2022-12-29T04:49:59;99599.72;;;3.23
67515;BMP280;60646;55.802;37.032;2022-12-29T04:52:51;99605.31;;;3.25
67515;BMP280;60646;55.802;37.032;2022-12-29T04:55:36;99602.69;;;3.25
67515;BMP280;60646;55.802;37.032;2022-12-29T04:58:01;99608.78;;;3.35
67515;BMP280;60646;55.802;37.032;2022-12-29T05:00:30;99614.81;;;3.36
67515;BMP280;60646;55.802;37.032;2022-12-29T05:02:56;99617.47;;;3.36
67515;BMP280;60646;55.802;37.032;2022-12-29T05:05:22;99620.09;;;3.36
67515;BMP280;60646;55.802;37.032;2022-12-29T05:07:50;99616.50;;;3.30
67515;BMP280;60646;55.802;37.032;2022-12-29T05:10:19;99615.56;;;3.23
67515;BMP280;60646;55.802;37.032;2022-12-29T05:12:45;99634.44;;;3.35
67515;BMP280;60646;55.802;37.032;2022-12-29T05:15:13;99639.00;;;3.34
67515;BMP280;60646;55.802;37.032;2022-12-29T05:17:38;99636.34;;;3.34
67515;BMP280;60646;55.802;37.032;2022-12-29T05:20:06;99628.75;;;3.23
67515;BMP280;60646;55.802;37.032;2022-12-29T05:22:33;99643.53;;;3.34
67515;BMP280;60646;55.802;37.032;2022-12-29T05:25:02;99632.47;;;3.26
67515;BMP280;60646;55.802;37.032;2022-12-29T05:27:29;99629.28;;;3.31
67515;BMP280;60646;55.802;37.032;2022-12-29T05:30:05;99643.94;;;3.32
67515;BMP280;60646;55.802;37.032;2022-12-29T05:32:31;99638.38;;;3.30
67515;BMP280;60646;55.802;37.032;2022-12-29T05:34:57;99631.72;;;3.25
67515;BMP280;60646;55.802;37.032;2022-12-29T05:37:24;99623.06;;;3.25
67515;BMP280;60646;55.802;37.032;2022-12-29T05:39:49;99637.50;;;3.33
67515;BMP280;60646;55.802;37.032;2022-12-29T05:42:15;99621.91;;;3.26
67515;BMP280;60646;55.802;37.032;2022-12-29T05:44:50;99619.69;;;3.24
67515;BMP280;60646;55.802;37.032;2022-12-29T05:47:51;99619.34;;;3.22
67515;BMP280;60646;55.802;37.032;2022-12-29T05:50:50;99638.38;;;3.30
67515;BMP280;60646;55.802;37.032;2022-12-29T05:53:22;99623.28;;;3.18
67515;BMP280;60646;55.802;37.032;2022-12-29T05:58:32;99646.69;;;3.29
67515;BMP280;60646;55.802;37.032;2022-12-29T06:00:59;99625.22;;;3.17
67515;BMP280;60646;55.802;37.032;2022-12-29T06:06:09;99627.41;;;3.19
67515;BMP280;60646;55.802;37.032;2022-12-29T06:08:36;99641.41;;;3.29
67515;BMP280;60646;55.802;37.032;2022-12-29T06:11:02;99638.16;;;3.24
67515;BMP280;60646;55.802;37.032;2022-12-29T06:13:28;99637.63;;;3.30
67515;BMP280;60646;55.802;37.032;2022-12-29T06:15:55;99656.09;;;3.30
67515;BMP280;60646;55.802;37.032;2022-12-29T06:18:21;99650.50;;;3.28
67515;BMP280;60646;55.802;37.032;2022-12-29T06:20:47;99660.22;;;3.31
67515;BMP280;60646;55.802;37.032;2022-12-29T06:23:15;99648.19;;;3.30
67515;BMP280;60646;55.802;37.032;2022-12-29T06:25:42;99647.22;;;3.23
67515;BMP280;60646;55.802;37.032;2022-12-29T06:28:07;99648.19;;;3.30
67515;BMP280;60646;55.802;37.032;2022-12-29T06:30:35;99650.28;;;3.35
67515;BMP280;60646;55.802;37.032;2022-12-29T06:33:01;99644.38;;;3.31
67515;BMP280;60646;55.802;37.032;2022-12-29T06:35:27;99657.66;;;3.40
67515;BMP280;60646;55.802;37.032;2022-12-29T06:37:53;99652.41;;;3.40
67515;BMP280;60646;55.802;37.032;2022-12-29T06:40:19;99650.91;;;3.39
67515;BMP280;60646;55.802;37.032;2022-12-29T06:43:05;99656.06;;;3.42
67515;BMP280;60646;55.802;37.032;2022-12-29T06:45:44;99645.63;;;3.39
67515;BMP280;60646;55.802;37.032;2022-12-29T06:48:10;99649.44;;;3.38
67515;BMP280;60646;55.802;37.032;2022-12-29T06:50:36;99664.16;;;3.48
67515;BMP280;60646;55.802;37.032;2022-12-29T06:53:01;99667.84;;;3.50
67515;BMP280;60646;55.802;37.032;2022-12-29T06:55:27;99665.94;;;3.51
67515;BMP280;60646;55.802;37.032;2022-12-29T06:57:57;99667.75;;;3.54
67515;BMP280;60646;55.802;37.032;2022-12-29T07:00:24;99656.69;;;3.46
67515;BMP280;60646;55.802;37.032;2022-12-29T07:02:50;99665.13;;;3.54
67515;BMP280;60646;55.802;37.032;2022-12-29T07:05:16;99681.88;;;3.60
67515;BMP280;60646;55.802;37.032;2022-12-29T07:08:01;99677.22;;;3.64
67515;BMP280;60646;55.802;37.032;2022-12-29T07:10:27;99656.88;;;3.52
67515;BMP280;60646;55.802;37.032;2022-12-29T07:12:53;99671.66;;;3.62
67515;BMP280;60646;55.802;37.032;2022-12-29T07:15:19;99680.94;;;3.66
67515;BMP280;60646;55.802;37.032;2022-12-29T07:18:03;99671.72;;;3.71
67515;BMP280;60646;55.802;37.032;2022-12-29T07:20:29;99670.97;;;3.70
67515;BMP280;60646;55.802;37.032;2022-12-29T07:22:55;99666.44;;;3.71
67515;BMP280;60646;55.802;37.032;2022-12-29T07:25:21;99667.44;;;3.73
67515;BMP280;60646;55.802;37.032;2022-12-29T07:27:47;99678.34;;;3.76
67515;BMP280;60646;55.802;37.032;2022-12-29T07:30:14;99670.41;;;3.76
67515;BMP280;60646;55.802;37.032;2022-12-29T07:32:40;99676.00;;;3.78
67515;BMP280;60646;55.802;37.032;2022-12-29T07:35:06;99677.91;;;3.77
67515;BMP280;60646;55.802;37.032;2022-12-29T07:37:33;99676.00;;;3.78
67515;BMP280;60646;55.802;37.032;2022-12-29T07:39:58;99679.69;;;3.80
67515;BMP280;60646;55.802;37.032;2022-12-29T07:42:24;99663.22;;;3.76
67515;BMP280;60646;55.802;37.032;2022-12-29T07:44:51;99673.06;;;3.76
67515;BMP280;60646;55.802;37.032;2022-12-29T07:47:58;99681.69;;;3.89
67515;BMP280;60646;55.802;37.032;2022-12-29T07:50:24;99687.25;;;3.91
67515;BMP280;60646;55.802;37.032;2022-12-29T07:52:50;99679.44;;;3.87
67515;BMP280;60646;55.802;37.032;2022-12-29T07:55:16;99681.09;;;3.94
67515;BMP280;60646;55.802;37.032;2022-12-29T07:57:42;99687.44;;;3.96
67515;BMP280;60646;55.802;37.032;2022-12-29T08:00:08;99688.91;;;3.97
67515;BMP280;60646;55.802;37.032;2022-12-29T08:02:38;99689.53;;;4.01
67515;BMP280;60646;55.802;37.032;2022-12-29T08:05:05;99693.94;;;4.04
67515;BMP280;60646;55.802;37.032;2022-12-29T08:07:30;99689.31;;;4.08
67515;BMP280;60646;55.802;37.032;2022-12-29T08:09:56;99684.31;;;4.10
67515;BMP280;60646;55.802;37.032;2022-12-29T08:12:22;99689.47;;;4.14
67515;BMP280;60646;55.802;37.032;2022-12-29T08:14:48;99678.09;;;4.04
67515;BMP280;60646;55.802;37.032;2022-12-29T08:17:14;99689.03;;;4.15
67515;BMP280;60646;55.802;37.032;2022-12-29T08:19:39;99687.00;;;4.19
67515;BMP280;60646;55.802;37.032;2022-12-29T08:22:06;99678.28;;;4.10
67515;BMP280;60646;55.802;37.032;2022-12-29T08:24:32;99691.13;;;4.20
67515;BMP280;60646;55.802;37.032;2022-12-29T08:26:58;99689.63;;;4.19
67515;BMP280;60646;55.802;37.032;2022-12-29T08:29:23;99694.78;;;4.23
67515;BMP280;60646;55.802;37.032;2022-12-29T08:31:49;99674.66;;;4.16
67515;BMP280;60646;55.802;37.032;2022-12-29T08:34:14;99696.91;;;4.28
67515;BMP280;60646;55.802;37.032;2022-12-29T08:36:40;99683.06;;;4.24
67515;BMP280;60646;55.802;37.032;2022-12-29T08:39:24;99679.06;;;4.19
67515;BMP280;60646;55.802;37.032;2022-12-29T08:41:50;99684.53;;;4.25
67515;BMP280;60646;55.802;37.032;2022-12-29T08:44:16;99687.94;;;4.26
67515;BMP280;60646;55.802;37.032;2022-12-29T08:46:42;99689.16;;;4.34
67515;BMP280;60646;55.802;37.032;2022-12-29T08:49:07;99691.38;;;4.35
67515;BMP280;60646;55.802;37.032;2022-12-29T08:51:33;99688.56;;;4.39
67515;BMP280;60646;55.802;37.032;2022-12-29T08:53:59;99680.81;;;4.35
67515;BMP280;60646;55.802;37.032;2022-12-29T08:56:25;99674.78;;;4.35
67515;BMP280;60646;55.802;37.032;2022-12-29T08:58:54;99678.75;;;4.39
67515;BMP280;60646;55.802;37.032;2022-12-29T09:01:21;99679.78;;;4.42
67515;BMP280;60646;55.802;37.032;2022-12-29T09:03:47;99687.16;;;4.47
67515;BMP280;60646;55.802;37.032;2022-12-29T09:06:32;99692.03;;;4.57
67515;BMP280;60646;55.802;37.032;2022-12-29T09:08:59;99679.81;;;4.51
67515;BMP280;60646;55.802;37.032;2022-12-29T09:11:27;99669.81;;;4.46
67515;BMP280;60646;55.802;37.032;2022-12-29T09:13:53;99687.59;;;4.54
67515;BMP280;60646;55.802;37.032;2022-12-29T09:16:21;99686.44;;;4.55
67515;BMP280;60646;55.802;37.032;2022-12-29T09:18:47;99669.81;;;4.46
67515;BMP280;60646;55.802;37.032;2022-12-29T09:21:13;99686.59;;;4.52
67515;BMP280;60646;55.802;37.032;2022-12-29T09:23:39;99684.69;;;4.52
67515;BMP280;60646;55.802;37.032;2022-12-29T09:26:06;99690.72;;;4.53
67515;BMP280;60646;55.802;37.032;2022-12-29T09:28:33;99683.03;;;4.46
67515;BMP280;60646;55.802;37.032;2022-12-29T09:31:17;99678.28;;;4.41
67515;BMP280;60646;55.802;37.032;2022-12-29T09:33:43;99673.88;;;4.38
67515;BMP280;60646;55.802;37.032;2022-12-29T09:36:08;99677.56;;;4.40
67515;BMP280;60646;55.802;37.032;2022-12-29T09:38:34;99694.53;;;4.52
67515;BMP280;60646;55.802;37.032;2022-12-29T09:41:22;99686.19;;;4.53
67515;BMP280;60646;55.802;37.032;2022-12-29T09:45:00;99678.97;;;4.54
67515;BMP280;60646;55.802;37.032;2022-12-29T09:47:29;99677.19;;;4.51
67515;BMP280;60646;55.802;37.032;2022-12-29T09:52:50;99662.78;;;4.52
67515;BMP280;60646;55.802;37.032;2022-12-29T09:55:23;99683.66;;;4.59
67515;BMP280;60646;55.802;37.032;2022-12-29T09:57:57;99680.44;;;4.64
67515;BMP280;60646;55.802;37.032;2022-12-29T10:00:48;99678.00;;;4.69
67515;BMP280;60646;55.802;37.032;2022-12-29T10:03:20;99678.00;;;4.69
67515;BMP280;60646;55.802;37.032;2022-12-29T10:14:11;99673.63;;;4.85
67515;BMP280;60646;55.802;37.032;2022-12-29T10:25:13;99686.72;;;4.88
67515;BMP280;60646;55.802;37.032;2022-12-29T10:27:41;99681.13;;;4.86
67515;BMP280;60646;55.802;37.032;2022-12-29T10:30:11;99687.03;;;4.90
67515;BMP280;60646;55.802;37.032;2022-12-29T10:32:52;99684.50;;;4.96
67515;BMP280;60646;55.802;37.032;2022-12-29T10:35:24;99682.19;;;4.98
67515;BMP280;60646;55.802;37.032;2022-12-29T10:38:01;99679.13;;;4.99
67515;BMP280;60646;55.802;37.032;2022-12-29T10:42:59;99673.69;;;5.03
67515;BMP280;60646;55.802;37.032;2022-12-29T10:45:36;99670.56;;;5.04
67515;BMP280;60646;55.802;37.032;2022-12-29T10:48:26;99668.81;;;5.10
67515;BMP280;60646;55.802;37.032;2022-12-29T10:50:56;99644.84;;;5.05
67515;BMP280;60646;55.802;37.032;2022-12-29T10:56:41;99657.09;;;5.20
67515;BMP280;60646;55.802;37.032;2022-12-29T10:59:29;99640.44;;;5.11
67515;BMP280;60646;55.802;37.032;2022-12-29T11:05:03;99631.75;;;5.10
67515;BMP280;60646;55.802;37.032;2022-12-29T11:07:32;99631.00;;;5.10
67515;BMP280;60646;55.802;37.032;2022-12-29T11:10:18;99648.53;;;5.26
67515;BMP280;60646;55.802;37.032;2022-12-29T11:15:50;99636.47;;;5.15
67515;BMP280;60646;55.802;37.032;2022-12-29T11:18:39;99660.59;;;5.27
67515;BMP280;60646;55.802;37.032;2022-12-29T11:21:37;99659.88;;;5.26
67515;BMP280;60646;55.802;37.032;2022-12-29T11:26:45;99646.63;;;5.17
67515;BMP280;60646;55.802;37.032;2022-12-29T11:29:27;99648.53;;;5.26
67515;BMP280;60646;55.802;37.032;2022-12-29T11:31:58;99653.56;;;5.24
67515;BMP280;60646;55.802;37.032;2022-12-29T11:34:35;99656.50;;;5.26
67515;BMP280;60646;55.802;37.032;2022-12-29T11:37:19;99653.84;;;5.26
67515;BMP280;60646;55.802;37.032;2022-12-29T11:40:03;99654.72;;;5.22
67515;BMP280;60646;55.802;37.032;2022-12-29T11:45:12;99655.59;;;5.19
67515;BMP280;60646;55.802;37.032;2022-12-29T11:47:43;99649.72;;;5.15
67515;BMP280;60646;55.802;37.032;2022-12-29T11:50:21;99652.53;;;5.21
67515;BMP280;60646;55.802;37.032;2022-12-29T11:52:50;99663.69;;;5.25
67515;BMP280;60646;55.802;37.032;2022-12-29T11:55:25;99651.06;;;5.20
67515;BMP280;60646;55.802;37.032;2022-12-29T11:57:54;99665.88;;;5.27
67515;BMP280;60646;55.802;37.032;2022-12-29T12:00:25;99661.03;;;5.25
67515;BMP280;60646;55.802;37.032;2022-12-29T12:03:25;99663.53;;;5.29
67515;BMP280;60646;55.802;37.032;2022-12-29T12:05:56;99658.69;;;5.18
67515;BMP280;60646;55.802;37.032;2022-12-29T12:11:03;99657.22;;;5.26
67515;BMP280;60646;55.802;37.032;2022-12-29T12:13:39;99659.13;;;5.26
67515;BMP280;60646;55.802;37.032;2022-12-29T12:16:33;99676.66;;;5.23
67515;BMP280;60646;55.802;37.032;2022-12-29T12:22:03;99645.59;;;5.05
67515;BMP280;60646;55.802;37.032;2022-12-29T12:24:41;99667.69;;;5.20
67515;BMP280;60646;55.802;37.032;2022-12-29T12:29:52;99674.56;;;5.18
67515;BMP280;60646;55.802;37.032;2022-12-29T12:32:34;99673.84;;;5.17
67515;BMP280;60646;55.802;37.032;2022-12-29T12:35:53;99670.91;;;5.15
67515;BMP280;60646;55.802;37.032;2022-12-29T12:44:52;99662.94;;;5.06
67515;BMP280;60646;55.802;37.032;2022-12-29T12:47:45;99650.44;;;4.98
67515;BMP280;60646;55.802;37.032;2022-12-29T12:50:41;99651.91;;;4.99
67515;BMP280;60646;55.802;37.032;2022-12-29T12:56:19;99652.03;;;4.95
67515;BMP280;60646;55.802;37.032;2022-12-29T13:01:37;99657.06;;;5.02
67515;BMP280;60646;55.802;37.032;2022-12-29T13:12:57;99672.19;;;5.02
67515;BMP280;60646;55.802;37.032;2022-12-29T13:15:39;99669.97;;;5.00
67515;BMP280;60646;55.802;37.032;2022-12-29T13:26:51;99673.53;;;5.06
67515;BMP280;60646;55.802;37.032;2022-12-29T13:50:54;99663.69;;;5.07
67515;BMP280;60646;55.802;37.032;2022-12-29T13:56:39;99651.16;;;4.98
67515;BMP280;60646;55.802;37.032;2022-12-29T14:02:13;99662.34;;;5.02
67515;BMP280;60646;55.802;37.032;2022-12-29T14:04:59;99662.94;;;5.06
67515;BMP280;60646;55.802;37.032;2022-12-29T14:07:27;99671.19;;;5.08
67515;BMP280;60646;55.802;37.032;2022-12-29T14:09:55;99680.88;;;5.11
67515;BMP280;60646;55.802;37.032;2022-12-29T14:17:43;99681.16;;;5.13
67515;BMP280;60646;55.802;37.032;2022-12-29T14:20:19;99668.25;;;5.15
67515;BMP280;60646;55.802;37.032;2022-12-29T14:22:57;99658.97;;;5.11
67515;BMP280;60646;55.802;37.032;2022-12-29T14:28:29;99660.88;;;5.10
67515;BMP280;60646;55.802;37.032;2022-12-29T14:31:00;99664.84;;;5.15
67515;BMP280;60646;55.802;37.032;2022-12-29T14:33:31;99673.53;;;5.15
67515;BMP280;60646;55.802;37.032;2022-12-29T14:38:44;99672.38;;;5.16
67515;BMP280;60646;55.802;37.032;2022-12-29T14:41:38;99667.06;;;5.16
67515;BMP280;60646;55.802;37.032;2022-12-29T14:47:06;99665.31;;;5.22
67515;BMP280;60646;55.802;37.032;2022-12-29T14:49:40;99667.81;;;5.17
67515;BMP280;60646;55.802;37.032;2022-12-29T14:52:20;99671.34;;;5.23
67515;BMP280;60646;55.802;37.032;2022-12-29T14:58:01;99666.06;;;5.23
67515;BMP280;60646;55.802;37.032;2022-12-29T15:01:03;99659.41;;;5.18
67515;BMP280;60646;55.802;37.032;2022-12-29T15:03:30;99663.53;;;5.29
67515;BMP280;60646;55.802;37.032;2022-12-29T15:06:11;99664.44;;;5.26
67515;BMP280;60646;55.802;37.032;2022-12-29T15:08:52;99668.53;;;5.27
67515;BMP280;60646;55.802;37.032;2022-12-29T15:11:23;99661.78;;;5.16
67515;BMP280;60646;55.802;37.032;2022-12-29T15:13:49;99659.28;;;5.22
67515;BMP280;60646;55.802;37.032;2022-12-29T15:16:25;99670.00;;;5.28
67515;BMP280;60646;55.802;37.032;2022-12-29T15:18:52;99665.88;;;5.27
67515;BMP280;60646;55.802;37.032;2022-12-29T15:21:32;99646.94;;;5.19
67515;BMP280;60646;55.802;37.032;2022-12-29T15:23:58;99656.78;;;5.28
67515;BMP280;60646;55.802;37.032;2022-12-29T15:26:36;99645.75;;;5.20
67515;BMP280;60646;55.802;37.032;2022-12-29T15:29:41;99661.63;;;5.29
67515;BMP280;60646;55.802;37.032;2022-12-29T15:32:23;99662.81;;;5.28
67515;BMP280;60646;55.802;37.032;2022-12-29T15:34:52;99667.34;;;5.28
67515;BMP280;60646;55.802;37.032;2022-12-29T15:37:28;99657.09;;;5.20
67515;BMP280;60646;55.802;37.032;2022-12-29T15:39:55;99645.91;;;5.16
67515;BMP280;60646;55.802;37.032;2022-12-29T15:42:33;99660.16;;;5.28
67515;BMP280;60646;55.802;37.032;2022-12-29T15:45:04;99657.50;;;5.28
67515;BMP280;60646;55.802;37.032;2022-12-29T15:47:32;99639.13;;;5.15
67515;BMP280;60646;55.802;37.032;2022-12-29T15:50:05;99651.47;;;5.28
67515;BMP280;60646;55.802;37.032;2022-12-29T15:52:33;99644.28;;;5.19
67515;BMP280;60646;55.802;37.032;2022-12-29T15:55:24;99653.97;;;5.31
67515;BMP280;60646;55.802;37.032;2022-12-29T15:57:59;99637.38;;;5.22
67515;BMP280;60646;55.802;37.032;2022-12-29T16:00:31;99652.06;;;5.32
67515;BMP280;60646;55.802;37.032;2022-12-29T16:03:01;99640.59;;;5.26
67515;BMP280;60646;55.802;37.032;2022-12-29T16:05:33;99656.50;;;5.35
67515;BMP280;60646;55.802;37.032;2022-12-29T16:12:37;99635.59;;;5.28
67515;BMP280;60646;55.802;37.032;2022-12-29T16:15:17;99625.88;;;5.25
67515;BMP280;60646;55.802;37.032;2022-12-29T16:17:57;99626.47;;;5.29
67515;BMP280;60646;55.802;37.032;2022-12-29T16:20:40;99623.25;;;5.34
67515;BMP280;60646;55.802;37.032;2022-12-29T16:23:18;99615.00;;;5.32
67515;BMP280;60646;55.802;37.032;2022-12-29T16:29:19;99617.06;;;5.37
67515;BMP280;60646;55.802;37.032;2022-12-29T16:31:56;99601.47;;;5.30
67515;BMP280;60646;55.802;37.032;2022-12-29T16:34:32;99601.47;;;5.30
67515;BMP280;60646;55.802;37.032;2022-12-29T16:37:00;99602.34;;;5.36
67515;BMP280;60646;55.802;37.032;2022-12-29T16:39:30;99612.06;;;5.39
67515;BMP280;60646;55.802;37.032;2022-12-29T16:41:57;99608.69;;;5.38
67515;BMP280;60646;55.802;37.032;2022-12-29T16:44:24;99609.44;;;5.39
67515;BMP280;60646;55.802;37.032;2022-12-29T16:49:39;99587.94;;;5.28
67515;BMP280;60646;55.802;37.032;2022-12-29T16:52:21;99606.16;;;5.44
67515;BMP280;60646;55.802;37.032;2022-12-29T16:54:59;99587.66;;;5.35
67515;BMP280;60646;55.802;37.032;2022-12-29T17:09:17;99597.03;;;5.45
67515;BMP280;60646;55.802;37.032;2022-12-29T17:11:46;99591.16;;;5.41
67515;BMP280;60646;55.802;37.032;2022-12-29T17:17:35;99575.88;;;5.36
67515;BMP280;60646;55.802;37.032;2022-12-29T17:20:03;99593.81;;;5.50
67515;BMP280;60646;55.802;37.032;2022-12-29T17:22:30;99600.72;;;5.47
67515;BMP280;60646;55.802;37.032;2022-12-29T17:24:57;99582.63;;;5.46
67515;BMP280;60646;55.802;37.032;2022-12-29T17:27:25;99600.28;;;5.49
67515;BMP280;60646;55.802;37.032;2022-12-29T17:29:53;99592.34;;;5.49
67515;BMP280;60646;55.802;37.032;2022-12-29T17:32:21;99575.00;;;5.39
67515;BMP280;60646;55.802;37.032;2022-12-29T17:34:47;99588.50;;;5.50
67515;BMP280;60646;55.802;37.032;2022-12-29T17:39:55;99589.09;;;5.54
67515;BMP280;60646;55.802;37.032;2022-12-29T17:42:21;99574.25;;;5.47
67515;BMP280;60646;55.802;37.032;2022-12-29T17:44:47;99568.50;;;5.49
67515;BMP280;60646;55.802;37.032;2022-12-29T17:47:14;99574.94;;;5.57